Time;durP1;ratioP1;P1;durP2;ratioP2;P2;SDS_P1;SDS_P2;PMS_P1;PMS_P2;Temp;Humidity;BMP_temperature;BMP_pressure;BME280_temperature;BME280_humidity;BME280_pressure;Samples;Min_cycle;Max_cycle;Signal;HPM_P1;HPM_P2
2023/09/02 00:02:25;;;;;;;1.50;0.50;;;18.00;72.20;;;;;;5116852;28;20424;-54
2023/09/02 00:04:52;;;;;;;1.00;0.40;;;17.90;83.50;;;;;;5117625;27;20432;-54
2023/09/02 00:07:19;;;;;;;0.82;0.40;;;17.90;91.90;;;;;;5137328;27;20411;-57
2023/09/02 00:09:47;;;;;;;0.90;0.40;;;17.90;81.90;;;;;;5131291;27;20428;-54
2023/09/02 00:12:14;;;;;;;1.67;0.40;;;17.90;78.10;;;;;;5137356;27;20415;-54
2023/09/02 00:14:41;;;;;;;1.17;0.50;;;17.90;78.90;;;;;;5136850;27;20695;-55
2023/09/02 00:17:10;;;;;;;0.75;0.40;;;17.80;91.10;;;;;;5137172;27;20441;-57
2023/09/02 00:19:38;;;;;;;1.10;0.40;;;17.80;95.50;;;;;;5137243;27;20785;-58
2023/09/02 00:22:05;;;;;;;0.60;0.30;;;17.70;97.90;;;;;;5137111;27;20410;-58
2023/09/02 00:24:33;;;;;;;0.80;0.40;;;17.70;96.30;;;;;;5135962;27;20830;-54
2023/09/02 00:27:00;;;;;;;0.70;0.47;;;17.80;95.10;;;;;;5137380;27;20429;-57
2023/09/02 00:29:27;;;;;;;3.20;0.50;;;17.80;94.20;;;;;;5136872;27;20437;-57
2023/09/02 00:31:54;;;;;;;0.90;0.50;;;17.70;94.90;;;;;;5136431;27;20418;-53
2023/09/02 00:34:23;;;;;;;0.70;0.40;;;17.70;97.00;;;;;;5135762;27;20410;-56
2023/09/02 00:36:50;;;;;;;0.60;0.40;;;17.70;95.90;;;;;;5135689;27;20406;-55
2023/09/02 00:39:18;;;;;;;0.70;0.50;;;17.70;98.00;;;;;;5136085;27;20779;-57
2023/09/02 00:41:49;;;;;;;1.70;0.50;;;17.70;99.90;;;;;;5136011;27;20422;-54
2023/09/02 00:44:16;;;;;;;0.63;0.40;;;17.60;99.90;;;;;;5136592;27;20423;-55
2023/09/02 00:46:43;;;;;;;0.70;0.40;;;17.60;99.90;;;;;;5136358;27;20418;-52
2023/09/02 00:49:10;;;;;;;0.70;0.40;;;17.60;99.90;;;;;;5136443;27;20521;-57
2023/09/02 00:51:39;;;;;;;0.85;0.50;;;17.60;99.90;;;;;;5136986;27;20418;-53
2023/09/02 00:54:06;;;;;;;0.60;0.40;;;17.60;99.50;;;;;;5136773;27;20698;-55
2023/09/02 00:56:34;;;;;;;2.20;0.50;;;17.60;99.90;;;;;;5136434;27;20430;-52
2023/09/02 00:59:04;;;;;;;0.60;0.30;;;17.60;99.90;;;;;;5121149;27;20778;-55
2023/09/02 01:01:34;;;;;;;0.80;0.40;;;17.50;99.90;;;;;;5135997;27;20418;-55
2023/09/02 01:04:04;;;;;;;1.90;0.40;;;17.50;99.90;;;;;;5136517;27;20418;-52
2023/09/02 01:06:31;;;;;;;1.10;0.30;;;17.50;99.90;;;;;;5136283;27;20410;-53
2023/09/02 01:09:01;;;;;;;0.80;0.40;;;17.60;99.90;;;;;;5136339;27;20430;-53
2023/09/02 01:11:28;;;;;;;1.00;0.50;;;17.50;99.90;;;;;;5136367;27;20442;-58
2023/09/02 01:13:55;;;;;;;0.70;0.30;;;17.50;99.90;;;;;;5123066;27;20422;-55
2023/09/02 01:16:22;;;;;;;0.70;0.40;;;17.50;99.90;;;;;;5133393;27;20432;-57
2023/09/02 01:18:50;;;;;;;0.80;0.40;;;17.50;99.90;;;;;;5135491;27;20444;-56
2023/09/02 01:21:50;;;;;;;0.68;0.35;;;17.50;99.90;;;;;;5136121;27;20809;-57
2023/09/02 01:24:48;;;;;;;0.60;0.40;;;17.40;99.90;;;;;;5136655;28;20414;-55
2023/09/02 01:27:20;;;;;;;1.10;0.40;;;17.40;99.90;;;;;;5136266;28;20817;-56
2023/09/02 01:29:57;;;;;;;0.75;0.45;;;17.40;99.90;;;;;;5136263;28;20868;-56
2023/09/02 01:32:29;;;;;;;0.80;0.50;;;17.40;99.90;;;;;;5135605;28;20825;-56
2023/09/02 01:34:59;;;;;;;0.80;0.40;;;17.30;99.90;;;;;;5135678;28;20710;-57
2023/09/02 01:37:27;;;;;;;0.60;0.40;;;17.30;99.90;;;;;;5134968;28;20433;-57
2023/09/02 01:39:55;;;;;;;0.70;0.40;;;17.30;99.90;;;;;;5134527;28;20413;-55
2023/09/02 01:42:24;;;;;;;0.70;0.40;;;17.20;99.90;;;;;;5135062;28;20428;-57
2023/09/02 01:44:52;;;;;;;0.70;0.40;;;17.20;99.90;;;;;;5134233;28;21096;-57
2023/09/02 01:47:19;;;;;;;1.38;0.40;;;17.10;99.90;;;;;;5132183;28;20422;-55
2023/09/02 01:49:47;;;;;;;0.70;0.40;;;17.10;99.90;;;;;;5132525;28;20462;-54
2023/09/02 01:52:16;;;;;;;1.00;0.40;;;17.00;99.90;;;;;;5133681;28;20406;-53
2023/09/02 01:54:44;;;;;;;1.10;0.47;;;17.00;99.90;;;;;;5134461;28;20702;-52
2023/09/02 01:57:11;;;;;;;0.90;0.50;;;17.00;99.90;;;;;;5135110;28;20422;-55
2023/09/02 01:59:40;;;;;;;0.60;0.40;;;16.90;99.90;;;;;;5135467;27;20506;-53
2023/09/02 02:02:07;;;;;;;0.63;0.40;;;16.90;99.90;;;;;;5139190;27;20729;-56
2023/09/02 02:04:35;;;;;;;0.70;0.40;;;16.90;99.90;;;;;;5139297;27;20426;-55
2023/09/02 02:07:06;;;;;;;1.60;0.40;;;17.00;99.90;;;;;;5140379;27;20418;-51
2023/09/02 02:09:39;;;;;;;0.80;0.47;;;17.00;99.90;;;;;;5139877;27;20478;-56
2023/09/02 02:12:08;;;;;;;1.10;0.50;;;17.00;99.90;;;;;;5140043;27;20419;-55
2023/09/02 02:14:35;;;;;;;0.70;0.40;;;17.00;99.90;;;;;;5139932;27;20841;-55
2023/09/02 02:17:06;;;;;;;0.60;0.40;;;17.00;99.90;;;;;;5140195;27;20418;-56
2023/09/02 02:19:34;;;;;;;0.70;0.40;;;17.00;99.90;;;;;;5139402;27;20410;-57
2023/09/02 02:22:02;;;;;;;0.52;0.40;;;17.10;99.90;;;;;;5139398;27;20733;-56
2023/09/02 02:24:29;;;;;;;0.60;0.40;;;17.00;99.90;;;;;;5139508;27;20430;-57
2023/09/02 02:26:56;;;;;;;0.60;0.40;;;17.00;99.90;;;;;;5138262;27;20414;-56
2023/09/02 02:29:23;;;;;;;0.73;0.40;;;17.00;99.90;;;;;;5138721;27;20427;-53
2023/09/02 02:31:50;;;;;;;1.50;0.50;;;17.00;99.90;;;;;;5139196;27;20422;-55
2023/09/02 02:34:19;;;;;;;0.70;0.40;;;16.90;99.90;;;;;;5139381;27;20471;-55
2023/09/02 02:36:46;;;;;;;0.80;0.50;;;16.80;99.90;;;;;;5139425;27;20429;-56
2023/09/02 02:39:13;;;;;;;0.93;0.50;;;16.80;99.90;;;;;;5139332;27;20426;-55
2023/09/02 02:41:40;;;;;;;0.80;0.40;;;16.80;99.90;;;;;;5139662;27;20419;-54
2023/09/02 02:44:07;;;;;;;0.90;0.50;;;16.70;99.90;;;;;;5139233;27;20418;-56
2023/09/02 02:46:34;;;;;;;1.02;0.50;;;16.70;99.90;;;;;;5138980;27;20425;-56
2023/09/02 02:49:02;;;;;;;0.70;0.40;;;16.70;99.90;;;;;;5138916;27;20414;-57
2023/09/02 02:51:30;;;;;;;0.70;0.40;;;16.80;99.90;;;;;;5139072;27;20775;-55
2023/09/02 02:53:58;;;;;;;1.00;0.40;;;16.90;99.90;;;;;;5139017;27;20429;-57
2023/09/02 02:56:25;;;;;;;0.77;0.40;;;16.90;99.90;;;;;;5138575;27;20996;-56
2023/09/02 02:58:52;;;;;;;1.13;0.40;;;16.90;99.90;;;;;;5138698;27;20440;-55
2023/09/02 03:01:19;;;;;;;1.30;0.40;;;17.00;99.90;;;;;;5138842;27;20436;-56
2023/09/02 03:03:46;;;;;;;0.60;0.40;;;16.90;99.90;;;;;;5138635;27;20411;-57
2023/09/02 03:06:18;;;;;;;1.30;0.60;;;16.90;99.90;;;;;;5139003;27;20469;-55
2023/09/02 03:08:46;;;;;;;0.95;0.45;;;16.90;99.90;;;;;;5138419;27;20443;-55
2023/09/02 03:11:14;;;;;;;0.60;0.40;;;17.00;99.90;;;;;;5138757;27;20713;-52
2023/09/02 03:13:41;;;;;;;0.70;0.40;;;17.00;99.90;;;;;;5137491;27;20725;-56
2023/09/02 03:16:08;;;;;;;0.70;0.40;;;16.90;99.90;;;;;;5138617;27;20410;-50
2023/09/02 03:18:35;;;;;;;0.80;0.50;;;16.90;99.90;;;;;;5136911;27;20413;-52
2023/09/02 03:21:03;;;;;;;0.70;0.40;;;17.00;99.90;;;;;;5136833;27;20414;-51
2023/09/02 03:23:30;;;;;;;0.98;0.50;;;16.90;99.90;;;;;;5137201;27;20891;-52
2023/09/02 03:26:07;;;;;;;1.17;0.50;;;16.90;99.90;;;;;;5137086;27;20422;-56
2023/09/02 03:28:34;;;;;;;1.30;0.40;;;16.90;99.90;;;;;;5137113;27;20419;-55
2023/09/02 03:31:06;;;;;;;1.20;0.50;;;16.90;99.90;;;;;;5136875;27;20426;-53
2023/09/02 03:33:33;;;;;;;2.10;0.50;;;16.90;99.90;;;;;;5138175;27;20434;-55
2023/09/02 03:36:00;;;;;;;0.80;0.50;;;16.90;99.90;;;;;;5138246;27;20414;-55
2023/09/02 03:38:28;;;;;;;0.70;0.50;;;16.90;99.90;;;;;;5138379;27;20834;-51
2023/09/02 03:40:55;;;;;;;1.58;0.40;;;16.90;99.90;;;;;;5137440;27;20422;-56
2023/09/02 03:43:24;;;;;;;0.88;0.43;;;16.90;99.90;;;;;;5137618;27;20729;-55
2023/09/02 03:45:51;;;;;;;0.80;0.50;;;16.90;99.90;;;;;;5137864;27;20780;-52
2023/09/02 03:48:19;;;;;;;1.10;0.50;;;16.90;99.90;;;;;;5138270;27;20425;-55
2023/09/02 03:51:03;;;;;;;0.75;0.40;;;16.90;99.90;;;;;;5138277;27;20714;-57
2023/09/02 03:53:31;;;;;;;1.60;0.40;;;16.90;99.90;;;;;;5137467;27;20460;-55
2023/09/02 03:55:58;;;;;;;0.70;0.40;;;16.90;99.90;;;;;;5136623;27;20491;-52
2023/09/02 03:58:27;;;;;;;0.77;0.40;;;16.80;99.90;;;;;;5137019;27;20718;-51
2023/09/02 04:00:54;;;;;;;1.10;0.50;;;16.80;99.90;;;;;;5136550;27;20714;-52
2023/09/02 04:03:22;;;;;;;0.80;0.40;;;16.70;99.90;;;;;;5136928;27;20415;-55
2023/09/02 04:05:49;;;;;;;0.90;0.47;;;16.70;99.90;;;;;;5136921;27;21037;-55
2023/09/02 04:08:18;;;;;;;1.00;0.40;;;16.80;99.90;;;;;;5137199;27;20426;-54
2023/09/02 04:10:45;;;;;;;0.90;0.50;;;16.70;99.90;;;;;;5136012;27;20730;-53
2023/09/02 04:13:12;;;;;;;0.95;0.50;;;16.70;99.90;;;;;;5135876;27;20733;-49
2023/09/02 04:15:41;;;;;;;0.93;0.50;;;16.70;99.90;;;;;;5135195;27;20814;-54
2023/09/02 04:18:08;;;;;;;0.80;0.45;;;16.70;99.90;;;;;;5135385;27;20434;-55
2023/09/02 04:20:36;;;;;;;1.05;0.45;;;16.60;99.90;;;;;;5135145;28;20430;-54
2023/09/02 04:23:03;;;;;;;0.70;0.40;;;16.60;99.90;;;;;;5134009;27;20418;-53
2023/09/02 04:25:30;;;;;;;1.00;0.50;;;16.60;99.90;;;;;;5133886;27;20418;-55
2023/09/02 04:27:58;;;;;;;0.70;0.40;;;16.60;99.90;;;;;;5134251;27;20535;-55
2023/09/02 04:30:25;;;;;;;0.73;0.40;;;16.60;99.90;;;;;;5136128;27;20899;-54
2023/09/02 04:32:54;;;;;;;0.77;0.40;;;16.50;99.90;;;;;;5136082;27;20419;-55
2023/09/02 04:35:21;;;;;;;1.20;0.40;;;16.40;99.90;;;;;;5136112;27;20471;-55
2023/09/02 04:37:48;;;;;;;0.80;0.47;;;16.30;99.90;;;;;;5136267;27;20760;-54
2023/09/02 04:40:15;;;;;;;1.40;0.40;;;16.30;99.90;;;;;;5136296;27;20698;-56
2023/09/02 04:42:42;;;;;;;0.80;0.40;;;16.30;99.90;;;;;;5135994;27;20415;-55
2023/09/02 04:45:11;;;;;;;1.48;0.50;;;16.40;99.90;;;;;;5136190;27;20422;-53
2023/09/02 04:47:38;;;;;;;0.63;0.40;;;16.40;99.90;;;;;;5136144;27;20472;-56
2023/09/02 04:50:08;;;;;;;0.80;0.50;;;16.40;99.90;;;;;;5135046;27;20438;-54
2023/09/02 04:52:37;;;;;;;1.20;0.50;;;16.40;99.90;;;;;;5068610;27;1904880;-55
2023/09/02 04:55:04;;;;;;;1.00;0.50;;;16.40;99.90;;;;;;5136653;27;20785;-54
2023/09/02 04:57:34;;;;;;;0.70;0.40;;;16.40;99.90;;;;;;5136892;27;20421;-53
2023/09/02 05:00:01;;;;;;;0.90;0.40;;;16.40;99.90;;;;;;5136867;27;20414;-55
2023/09/02 05:02:28;;;;;;;0.70;0.40;;;16.40;99.90;;;;;;5136764;27;20425;-53
2023/09/02 05:04:55;;;;;;;0.80;0.40;;;16.40;99.90;;;;;;5136392;27;20429;-56
2023/09/02 05:07:23;;;;;;;0.60;0.40;;;16.40;99.90;;;;;;5135899;27;20814;-52
2023/09/02 05:09:51;;;;;;;0.65;0.40;;;16.40;99.90;;;;;;5136448;27;20810;-52
2023/09/02 05:12:18;;;;;;;1.20;0.50;;;16.40;99.90;;;;;;5136753;27;20425;-55
2023/09/02 05:14:45;;;;;;;0.90;0.40;;;16.40;99.90;;;;;;5136768;27;20418;-54
2023/09/02 05:17:12;;;;;;;1.10;0.50;;;16.50;99.90;;;;;;5136625;27;20437;-54
2023/09/02 05:19:39;;;;;;;0.75;0.50;;;16.50;99.90;;;;;;5136849;27;20418;-55
2023/09/02 05:22:06;;;;;;;1.25;0.40;;;16.50;99.90;;;;;;5136326;27;20457;-56
2023/09/02 05:24:35;;;;;;;1.10;0.50;;;16.60;99.90;;;;;;5136182;27;20418;-55
2023/09/02 05:27:02;;;;;;;0.90;0.50;;;16.60;99.90;;;;;;5136525;27;20694;-55
2023/09/02 05:29:29;;;;;;;1.90;0.40;;;16.60;99.90;;;;;;5136519;27;20844;-53
2023/09/02 05:31:56;;;;;;;0.73;0.50;;;16.60;99.90;;;;;;5136111;27;20725;-57
2023/09/02 05:34:23;;;;;;;0.80;0.40;;;16.70;99.90;;;;;;5136225;27;20413;-53
2023/09/02 05:36:50;;;;;;;1.57;0.47;;;16.70;99.90;;;;;;5139591;27;20418;-56
2023/09/02 05:39:17;;;;;;;0.70;0.40;;;16.70;99.90;;;;;;5140662;27;20497;-54
2023/09/02 05:41:46;;;;;;;0.80;0.40;;;16.70;99.90;;;;;;5139761;27;20422;-52
2023/09/02 05:44:14;;;;;;;0.85;0.50;;;16.80;99.90;;;;;;5139327;27;20418;-56
2023/09/02 05:46:41;;;;;;;0.90;0.50;;;16.80;99.90;;;;;;5140037;27;20418;-52
2023/09/02 05:49:08;;;;;;;0.80;0.50;;;16.80;99.90;;;;;;5139563;27;20691;-51
2023/09/02 05:51:35;;;;;;;1.10;0.60;;;16.80;99.90;;;;;;5138730;27;21000;-51
2023/09/02 05:54:02;;;;;;;0.80;0.40;;;16.80;99.90;;;;;;5139102;27;20833;-54
2023/09/02 05:56:31;;;;;;;0.80;0.40;;;16.80;99.90;;;;;;5138889;27;20414;-54
2023/09/02 05:59:00;;;;;;;0.90;0.50;;;16.80;99.90;;;;;;5097967;28;20737;-56
2023/09/02 06:01:27;;;;;;;1.13;0.45;;;16.90;99.90;;;;;;5101585;27;20425;-55
2023/09/02 06:03:54;;;;;;;1.10;0.40;;;16.90;99.90;;;;;;5124058;27;20418;-54
2023/09/02 06:06:21;;;;;;;1.17;0.50;;;17.00;99.90;;;;;;5140359;27;20794;-55
2023/09/02 06:08:48;;;;;;;1.15;0.50;;;17.10;99.90;;;;;;5125298;27;20416;-55
2023/09/02 06:11:16;;;;;;;1.70;0.50;;;17.10;99.90;;;;;;5118842;28;20436;-53
2023/09/02 06:13:43;;;;;;;0.80;0.50;;;17.20;97.90;;;;;;5118657;28;20438;-54
2023/09/02 06:16:11;;;;;;;0.80;0.40;;;17.30;95.90;;;;;;5118908;28;20412;-53
2023/09/02 06:18:38;;;;;;;0.80;0.50;;;17.40;89.20;;;;;;5119339;28;20443;-53
2023/09/02 06:21:10;;;;;;;1.05;0.60;;;17.40;71.70;;;;;;5126768;27;20421;-50
2023/09/02 06:23:37;;;;;;;1.70;0.50;;;17.40;66.50;;;;;;5139075;27;20414;-54
2023/09/02 06:26:04;;;;;;;1.37;0.50;;;17.40;79.90;;;;;;5139064;27;20850;-54
2023/09/02 06:28:32;;;;;;;1.20;0.50;;;17.40;81.60;;;;;;5139280;27;20445;-49
2023/09/02 06:30:59;;;;;;;1.05;0.50;;;17.40;62.30;;;;;;5137660;27;20422;-49
2023/09/02 06:33:27;;;;;;;1.10;0.60;;;17.40;59.10;;;;;;5138473;27;20424;-52
2023/09/02 06:35:54;;;;;;;1.20;0.50;;;17.50;73.60;;;;;;5138415;27;20423;-54
2023/09/02 06:38:21;;;;;;;0.80;0.50;;;17.40;93.40;;;;;;5137866;27;20427;-50
2023/09/02 06:40:48;;;;;;;0.90;0.50;;;17.50;99.90;;;;;;5138575;27;20712;-48
2023/09/02 06:43:15;;;;;;;1.20;0.50;;;17.50;99.90;;;;;;5137532;27;20467;-50
2023/09/02 06:45:44;;;;;;;1.20;0.50;;;17.60;99.90;;;;;;5131971;27;20414;-54
2023/09/02 06:48:11;;;;;;;0.70;0.40;;;17.70;99.90;;;;;;5138838;27;20509;-47
2023/09/02 06:50:40;;;;;;;1.08;0.55;;;17.80;99.90;;;;;;5138999;27;20430;-53
2023/09/02 06:53:07;;;;;;;1.00;0.50;;;17.90;99.50;;;;;;5137428;27;20426;-54
2023/09/02 06:55:34;;;;;;;0.90;0.50;;;18.00;98.00;;;;;;5150791;27;20417;-49
2023/09/02 06:58:01;;;;;;;0.93;0.50;;;18.10;92.80;;;;;;5140026;27;20410;-53
2023/09/02 07:00:28;;;;;;;0.70;0.50;;;18.10;93.40;;;;;;5138604;27;20459;-54
2023/09/02 07:02:55;;;;;;;1.73;0.50;;;18.20;95.40;;;;;;5138450;27;20418;-48
2023/09/02 07:05:22;;;;;;;1.40;0.40;;;18.30;89.30;;;;;;5138396;27;20417;-52
2023/09/02 07:07:51;;;;;;;1.10;0.50;;;18.40;75.80;;;;;;5138405;27;20814;-53
2023/09/02 07:10:18;;;;;;;1.30;0.50;;;18.50;65.60;;;;;;5138043;27;20411;-54
2023/09/02 07:12:47;;;;;;;0.70;0.40;;;18.60;54.50;;;;;;5138142;27;20438;-51
2023/09/02 07:15:15;;;;;;;0.80;0.50;;;18.70;45.50;;;;;;5138593;27;20429;-47
2023/09/02 07:17:42;;;;;;;1.00;0.47;;;18.80;45.80;;;;;;5138927;27;20422;-54
2023/09/02 07:20:10;;;;;;;0.90;0.50;;;18.80;33.40;;;;;;5126491;27;20520;-50
2023/09/02 07:22:37;;;;;;;1.20;0.40;;;18.90;18.10;;;;;;5135687;27;20437;-48
2023/09/02 07:25:08;;;;;;;1.10;0.80;;;19.10;5.20;;;;;;5129271;27;20831;-53
2023/09/02 07:27:35;;;;;;;1.00;0.50;;;19.20;3.40;;;;;;5124732;27;20420;-48
2023/09/02 07:30:02;;;;;;;0.80;0.50;;;19.30;1.00;;;;;;5107388;28;20514;-54
2023/09/02 07:32:29;;;;;;;0.60;0.40;;;19.40;1.00;;;;;;5129487;27;20671;-48
2023/09/02 07:34:56;;;;;;;0.90;0.40;;;19.50;1.00;;;;;;5136996;27;20419;-49
2023/09/02 07:37:23;;;;;;;0.60;0.40;;;19.60;1.00;;;;;;5135585;27;20410;-53
2023/09/02 07:39:50;;;;;;;0.70;0.40;;;19.80;1.00;;;;;;5136166;27;20407;-49
2023/09/02 07:42:19;;;;;;;0.77;0.40;;;19.90;1.00;;;;;;5135632;27;20418;-51
2023/09/02 07:44:46;;;;;;;1.27;0.40;;;20.10;1.00;;;;;;5116363;27;20424;-51
2023/09/02 07:47:13;;;;;;;0.70;0.43;;;20.30;1.00;;;;;;5114904;28;20700;-52
2023/09/02 07:49:40;;;;;;;0.60;0.40;;;20.40;1.00;;;;;;5114803;28;20430;-50
2023/09/02 07:52:07;;;;;;;0.75;0.40;;;20.50;1.00;;;;;;5113304;28;20431;-53
2023/09/02 07:54:35;;;;;;;0.80;0.50;;;20.60;1.00;;;;;;5113778;28;20422;-54
2023/09/02 07:57:02;;;;;;;1.10;0.40;;;20.60;1.00;;;;;;5114780;28;20428;-50
2023/09/02 07:59:33;;;;;;;1.00;0.38;;;20.70;1.00;;;;;;5113223;28;20445;-53
2023/09/02 08:02:00;;;;;;;0.80;0.40;;;20.80;1.00;;;;;;5114697;28;20416;-50
2023/09/02 08:04:27;;;;;;;0.80;0.40;;;20.90;1.00;;;;;;5114901;28;20439;-53
2023/09/02 08:06:54;;;;;;;1.52;0.40;;;21.00;1.00;;;;;;5113331;28;20419;-51
2023/09/02 08:09:22;;;;;;;0.98;0.40;;;21.10;1.00;;;;;;5114559;28;20416;-49
2023/09/02 08:11:49;;;;;;;1.58;0.50;;;21.20;1.00;;;;;;5114739;28;20439;-52
2023/09/02 08:14:16;;;;;;;0.65;0.40;;;21.30;1.00;;;;;;5115179;28;20799;-51
2023/09/02 08:16:44;;;;;;;1.30;0.40;;;21.50;99.90;;;;;;5116163;28;20708;-54
2023/09/02 08:19:11;;;;;;;1.30;0.30;;;21.60;99.90;;;;;;5115530;28;20408;-55
2023/09/02 08:21:40;;;;;;;1.92;0.50;;;21.70;99.90;;;;;;5123251;27;20450;-55
2023/09/02 08:24:07;;;;;;;0.67;0.40;;;21.80;99.90;;;;;;5126928;27;20425;-54
2023/09/02 08:26:34;;;;;;;1.00;0.40;;;22.00;99.90;;;;;;5135797;27;20422;-55
2023/09/02 08:29:01;;;;;;;0.90;0.30;;;21.90;1.00;;;;;;5100942;27;20427;-55
2023/09/02 08:31:28;;;;;;;0.70;0.40;;;21.90;1.00;;;;;;5112816;28;20440;-54
2023/09/02 08:33:57;;;;;;;0.60;0.40;;;22.00;1.00;;;;;;5115567;28;20843;-51
2023/09/02 08:36:24;;;;;;;0.70;0.40;;;22.00;99.90;;;;;;5114653;28;20804;-54
2023/09/02 08:38:52;;;;;;;0.80;0.50;;;22.00;99.90;;;;;;5114862;28;20719;-55
2023/09/02 08:41:25;;;;;;;0.50;0.40;;;22.00;1.00;;;;;;5115420;28;20889;-55
2023/09/02 08:43:55;;;;;;;1.27;0.50;;;22.10;1.00;;;;;;5115157;28;20427;-55
2023/09/02 08:46:25;;;;;;;0.80;0.40;;;22.10;1.00;;;;;;5115651;28;20418;-53
2023/09/02 08:48:53;;;;;;;1.50;0.50;;;22.20;1.00;;;;;;5116085;28;20427;-53
2023/09/02 08:51:22;;;;;;;2.75;0.70;;;22.30;1.00;;;;;;5115860;28;20650;-53
2023/09/02 08:53:51;;;;;;;0.70;0.40;;;22.40;1.00;;;;;;5115090;28;20515;-53
2023/09/02 08:56:18;;;;;;;1.10;0.40;;;22.50;1.00;;;;;;5113826;27;20439;-54
2023/09/02 08:58:46;;;;;;;0.70;0.50;;;22.60;99.90;;;;;;5104187;28;20887;-53
2023/09/02 09:01:20;;;;;;;0.60;0.30;;;22.70;99.90;;;;;;5108628;28;20416;-55
2023/09/02 09:03:50;;;;;;;0.60;0.40;;;22.60;99.90;;;;;;5114420;28;20906;-55
2023/09/02 09:06:20;;;;;;;1.55;0.70;;;22.70;99.90;;;;;;5117509;27;20438;-55
2023/09/02 09:08:48;;;;;;;0.87;0.40;;;22.80;1.00;;;;;;5135666;27;20745;-56
2023/09/02 09:11:17;;;;;;;0.70;0.30;;;22.80;99.90;;;;;;5135365;27;20451;-55
2023/09/02 09:13:46;;;;;;;1.00;0.35;;;22.90;1.00;;;;;;5135277;27;20449;-54
2023/09/02 09:16:17;;;;;;;0.70;0.30;;;23.00;1.00;;;;;;5128184;27;20416;-49
2023/09/02 09:18:44;;;;;;;0.50;0.30;;;23.10;1.00;;;;;;5113927;28;20419;-53
2023/09/02 09:21:12;;;;;;;0.60;0.30;;;23.20;1.00;;;;;;5113829;28;20410;-53
2023/09/02 09:23:39;;;;;;;3.33;0.40;;;23.20;99.90;;;;;;5113526;28;20424;-53
2023/09/02 09:26:11;;;;;;;0.70;0.30;;;23.40;99.90;;;;;;5114674;28;20859;-55
2023/09/02 09:28:54;;;;;;;0.60;0.40;;;23.50;18.50;;;;;;5114168;28;20518;-55
2023/09/02 09:31:22;;;;;;;1.30;0.40;;;23.60;1.00;;;;;;5114531;28;20416;-54
2023/09/02 09:33:53;;;;;;;0.60;0.30;;;23.60;1.00;;;;;;5114759;28;20416;-56
2023/09/02 09:36:21;;;;;;;0.80;0.40;;;23.70;1.00;;;;;;5111037;28;20454;-55
2023/09/02 09:38:53;;;;;;;0.50;0.30;;;23.70;1.00;;;;;;5123208;28;20430;-54
2023/09/02 09:41:22;;;;;;;0.88;0.40;;;23.80;1.00;;;;;;5113767;27;20427;-54
2023/09/02 09:44:04;;;;;;;0.60;0.32;;;23.80;1.00;;;;;;5101235;28;20446;-51
2023/09/02 09:46:31;;;;;;;0.70;0.40;;;23.80;1.00;;;;;;5113415;28;20423;-52
2023/09/02 09:49:01;;;;;;;0.60;0.40;;;24.00;1.00;;;;;;5114487;28;20794;-53
2023/09/02 09:51:28;;;;;;;0.93;0.30;;;24.30;1.00;;;;;;5112808;28;20428;-55
2023/09/02 09:53:56;;;;;;;0.60;0.30;;;24.40;1.00;;;;;;5118311;28;20441;-52
2023/09/02 09:56:25;;;;;;;0.80;0.30;;;24.50;99.90;;;;;;5121512;28;20439;-53
2023/09/02 09:58:53;;;;;;;1.35;0.50;;;24.60;99.90;;;;;;5131014;28;20430;-53
2023/09/02 10:01:24;;;;;;;0.50;0.40;;;24.80;99.90;;;;;;5117584;28;20432;-55
2023/09/02 10:03:54;;;;;;;0.57;0.30;;;25.10;99.90;;;;;;5133152;28;20475;-53
2023/09/02 10:06:21;;;;;;;1.30;0.40;;;25.30;99.90;;;;;;5134909;27;20470;-54
2023/09/02 10:08:53;;;;;;;0.50;0.30;;;25.50;99.90;;;;;;5134727;27;20479;-56
2023/09/02 10:11:22;;;;;;;0.57;0.30;;;25.60;99.90;;;;;;5114170;28;20747;-55
2023/09/02 10:13:52;;;;;;;0.70;0.40;;;25.60;99.90;;;;;;5132271;27;20798;-56
2023/09/02 10:16:22;;;;;;;0.50;0.30;;;25.80;99.90;;;;;;5127082;28;20416;-56
2023/09/02 10:18:49;;;;;;;0.50;0.30;;;26.10;99.90;;;;;;5113086;28;20872;-55
2023/09/02 10:21:18;;;;;;;0.75;0.35;;;26.30;90.00;;;;;;5113101;28;20420;-55
2023/09/02 10:23:50;;;;;;;0.50;0.30;;;26.60;82.60;;;;;;5113933;28;20819;-56
2023/09/02 10:26:23;;;;;;;0.60;0.30;;;27.00;26.80;;;;;;5113342;28;20737;-54
2023/09/02 10:28:56;;;;;;;0.80;0.30;;;27.20;1.00;;;;;;5113328;28;20508;-56
2023/09/02 10:31:26;;;;;;;1.00;0.30;;;27.40;1.00;;;;;;5112898;28;20419;-55
2023/09/02 10:34:03;;;;;;;0.70;0.30;;;27.60;1.00;;;;;;5113062;28;20469;-56
2023/09/02 10:36:34;;;;;;;0.50;0.30;;;27.70;1.00;;;;;;5125697;27;20589;-55
2023/09/02 10:39:04;;;;;;;0.60;0.30;;;27.80;1.00;;;;;;5118702;27;20434;-56
2023/09/02 10:41:32;;;;;;;0.60;0.30;;;27.80;1.00;;;;;;5119697;27;20885;-56
2023/09/02 10:44:01;;;;;;;0.80;0.30;;;28.00;1.00;;;;;;5134992;27;20695;-58
2023/09/02 10:46:29;;;;;;;1.50;0.30;;;28.00;1.00;;;;;;5132771;27;20479;-56
2023/09/02 10:48:57;;;;;;;0.50;0.30;;;27.90;1.00;;;;;;5134980;27;21004;-55
2023/09/02 10:51:25;;;;;;;0.50;0.30;;;27.90;1.00;;;;;;5133738;27;20414;-58
2023/09/02 10:54:02;;;;;;;0.60;0.30;;;28.10;1.00;;;;;;5134069;27;20730;-57
2023/09/02 10:56:31;;;;;;;1.40;0.30;;;28.10;1.00;;;;;;5114784;28;20432;-57
2023/09/02 10:59:01;;;;;;;0.70;0.30;;;27.80;1.00;;;;;;5117210;27;20420;-57
2023/09/02 11:01:43;;;;;;;0.70;0.40;;;27.80;1.00;;;;;;5136808;27;20457;-52
2023/09/02 11:04:10;;;;;;;0.60;0.30;;;28.00;1.00;;;;;;5137214;27;20410;-54
2023/09/02 11:06:38;;;;;;;0.60;0.30;;;27.80;1.00;;;;;;5137489;27;20415;-57
2023/09/02 11:09:05;;;;;;;0.50;0.25;;;27.40;1.00;;;;;;5138197;27;20411;-56
2023/09/02 11:12:06;;;;;;;0.43;0.30;;;27.30;1.00;;;;;;5138056;27;20458;-57
2023/09/02 11:14:35;;;;;;;2.10;0.30;;;27.10;1.00;;;;;;5117800;27;20414;-56
2023/09/02 11:17:28;;;;;;;1.50;0.30;;;26.50;1.00;;;;;;5131428;27;20433;-55
2023/09/02 11:19:59;;;;;;;0.40;0.30;;;26.40;1.00;;;;;;5136166;27;20418;-55
2023/09/02 11:22:49;;;;;;;0.57;0.30;;;26.70;1.00;;;;;;5133666;27;20419;-58
2023/09/02 11:25:34;;;;;;;0.70;0.30;;;26.80;1.00;;;;;;5118763;27;20428;-56
2023/09/02 11:28:03;;;;;;;0.50;0.30;;;26.70;1.00;;;;;;5131576;27;20431;-55
2023/09/02 11:30:34;;;;;;;0.50;0.30;;;26.40;1.00;;;;;;5134235;27;20788;-56
2023/09/02 11:33:01;;;;;;;0.60;0.30;;;26.30;1.00;;;;;;5113545;28;20432;-57
2023/09/02 11:35:29;;;;;;;0.50;0.30;;;26.70;1.00;;;;;;5113144;28;20416;-56
2023/09/02 11:37:57;;;;;;;0.60;0.30;;;27.20;1.00;;;;;;5124053;27;20425;-57
2023/09/02 11:40:28;;;;;;;0.80;0.30;;;27.30;1.00;;;;;;5137020;27;20418;-57
2023/09/02 11:42:59;;;;;;;0.60;0.30;;;27.40;1.00;;;;;;5135609;27;20411;-57
2023/09/02 11:45:29;;;;;;;0.50;0.30;;;27.50;1.00;;;;;;5136624;27;20483;-57
2023/09/02 11:47:57;;;;;;;0.60;0.30;;;27.50;1.00;;;;;;5130149;27;20845;-57
2023/09/02 11:50:25;;;;;;;0.80;0.40;;;28.00;1.00;;;;;;5131300;27;20422;-57
2023/09/02 11:52:54;;;;;;;0.65;0.40;;;28.30;1.00;;;;;;5118440;27;20431;-57
2023/09/02 11:55:22;;;;;;;0.60;0.40;;;28.70;1.00;;;;;;5135451;27;20418;-56
2023/09/02 11:57:49;;;;;;;0.80;0.40;;;28.60;1.00;;;;;;5136490;27;20817;-57
2023/09/02 12:00:18;;;;;;;0.65;0.40;;;28.40;1.00;;;;;;5119233;27;20436;-57
2023/09/02 12:02:46;;;;;;;0.70;0.30;;;28.20;1.00;;;;;;5137516;27;20406;-57
2023/09/02 12:05:15;;;;;;;0.60;0.30;;;27.90;1.00;;;;;;5118476;27;20434;-57
2023/09/02 12:07:44;;;;;;;0.80;0.50;;;27.90;1.00;;;;;;5115412;28;20420;-57
2023/09/02 12:10:13;;;;;;;0.50;0.30;;;28.30;1.00;;;;;;5132446;27;20706;-57
2023/09/02 12:12:42;;;;;;;0.50;0.30;;;28.80;1.00;;;;;;5132738;27;20870;-57
2023/09/02 12:15:12;;;;;;;0.50;0.30;;;29.30;1.00;;;;;;5116441;27;20428;-56
2023/09/02 12:17:40;;;;;;;0.60;0.30;;;29.30;1.00;;;;;;5114914;28;20428;-56
2023/09/02 12:20:09;;;;;;;0.50;0.30;;;29.40;1.00;;;;;;5115641;28;20773;-56
2023/09/02 12:22:39;;;;;;;0.60;0.30;;;29.30;1.00;;;;;;5116992;27;20447;-58
2023/09/02 12:25:14;;;;;;;0.50;0.30;;;29.50;1.00;;;;;;5136832;27;20418;-57
2023/09/02 12:27:41;;;;;;;0.55;0.30;;;29.60;1.00;;;;;;5124846;27;20422;-56
2023/09/02 12:30:09;;;;;;;0.60;0.30;;;29.20;1.00;;;;;;5114235;28;20850;-58
2023/09/02 12:32:36;;;;;;;0.60;0.30;;;28.90;1.00;;;;;;5120478;27;20853;-58
2023/09/02 12:35:10;;;;;;;0.70;0.30;;;28.90;1.00;;;;;;5135535;27;20419;-59
2023/09/02 12:37:39;;;;;;;0.60;0.30;;;29.10;1.00;;;;;;5129089;27;20505;-57
2023/09/02 12:40:10;;;;;;;0.60;0.40;;;28.90;1.00;;;;;;5135703;27;20707;-57
2023/09/02 12:42:38;;;;;;;0.60;0.30;;;29.00;1.00;;;;;;5134288;27;20410;-58
2023/09/02 12:45:06;;;;;;;0.60;0.40;;;29.20;1.00;;;;;;5135411;27;20422;-57
2023/09/02 12:47:34;;;;;;;0.60;0.30;;;29.20;1.00;;;;;;5120674;27;20812;-57
2023/09/02 12:50:02;;;;;;;0.70;0.40;;;29.20;1.00;;;;;;5125920;27;20418;-57
2023/09/02 12:52:31;;;;;;;0.60;0.30;;;29.20;1.00;;;;;;5129421;27;20434;-57
2023/09/02 12:55:01;;;;;;;0.70;0.40;;;29.00;1.00;;;;;;5135106;27;20821;-57
2023/09/02 12:57:29;;;;;;;1.10;0.30;;;29.00;1.00;;;;;;5116372;27;20470;-57
2023/09/02 12:59:57;;;;;;;0.60;0.30;;;29.20;1.00;;;;;;5133034;27;20745;-57